sensor_id;sensor_type;location;lat;lon;timestamp;pressure;altitude;pressure_sealevel;temperature;humidity
10638;BME280;47007;49.252;8.904;2023-04-15T00:00:16;98833.69;;;5.25;100.00
10638;BME280;47007;49.252;8.904;2023-04-15T00:01:00;98826.19;;;5.14;100.00
10638;BME280;47007;49.252;8.904;2023-04-15T00:01:42;98834.69;;;5.24;100.00
10638;BME280;47007;49.252;8.904;2023-04-15T00:02:23;98836.47;;;5.23;100.00
10638;BME280;47007;49.252;8.904;2023-04-15T00:03:05;98829.59;;;5.22;100.00
10638;BME280;47007;49.252;8.904;2023-04-15T00:03:50;98810.19;;;5.00;100.00
10638;BME280;47007;49.252;8.904;2023-04-15T00:04:33;98835.41;;;5.10;100.00
10638;BME280;47007;49.252;8.904;2023-04-15T00:05:15;98830.03;;;5.03;100.00
10638;BME280;47007;49.252;8.904;2023-04-15T00:05:57;98839.25;;;4.99;100.00
10638;BME280;47007;49.252;8.904;2023-04-15T00:06:38;98824.19;;;4.93;100.00
10638;BME280;47007;49.252;8.904;2023-04-15T00:07:20;98818.63;;;4.88;100.00
10638;BME280;47007;49.252;8.904;2023-04-15T00:08:02;98815.50;;;4.84;100.00
10638;BME280;47007;49.252;8.904;2023-04-15T00:08:44;98837.59;;;4.98;100.00
10638;BME280;47007;49.252;8.904;2023-04-15T00:09:26;98834.31;;;4.96;100.00
10638;BME280;47007;49.252;8.904;2023-04-15T00:10:07;98828.31;;;4.87;100.00
10638;BME280;47007;49.252;8.904;2023-04-15T00:10:49;98831.25;;;4.92;100.00
10638;BME280;47007;49.252;8.904;2023-04-15T00:11:31;98833.34;;;4.97;100.00
10638;BME280;47007;49.252;8.904;2023-04-15T00:12:13;98832.69;;;4.95;100.00
10638;BME280;47007;49.252;8.904;2023-04-15T00:12:54;98806.53;;;4.79;100.00
10638;BME280;47007;49.252;8.904;2023-04-15T00:13:36;98828.13;;;4.89;100.00
10638;BME280;47007;49.252;8.904;2023-04-15T00:14:18;98831.25;;;4.84;100.00
10638;BME280;47007;49.252;8.904;2023-04-15T00:15:00;98819.97;;;4.76;100.00
10638;BME280;47007;49.252;8.904;2023-04-15T00:15:42;98825.72;;;4.79;100.00
10638;BME280;47007;49.252;8.904;2023-04-15T00:16:24;98808.53;;;4.68;100.00
10638;BME280;47007;49.252;8.904;2023-04-15T00:17:06;98811.63;;;4.72;100.00
10638;BME280;47007;49.252;8.904;2023-04-15T00:17:52;98818.50;;;4.81;100.00
10638;BME280;47007;49.252;8.904;2023-04-15T00:18:34;98818.50;;;4.81;100.00
10638;BME280;47007;49.252;8.904;2023-04-15T00:19:16;98822.41;;;4.85;100.00
10638;BME280;47007;49.252;8.904;2023-04-15T00:19:58;98804.06;;;4.77;100.00
10638;BME280;47007;49.252;8.904;2023-04-15T00:20:40;98822.72;;;4.90;100.00
10638;BME280;47007;49.252;8.904;2023-04-15T00:21:22;98820.09;;;4.90;100.00
10638;BME280;47007;49.252;8.904;2023-04-15T00:22:03;98824.53;;;4.90;100.00
10638;BME280;47007;49.252;8.904;2023-04-15T00:22:45;98818.78;;;4.86;100.00
10638;BME280;47007;49.252;8.904;2023-04-15T00:23:27;98807.34;;;4.79;100.00
10638;BME280;47007;49.252;8.904;2023-04-15T00:24:09;98824.53;;;4.90;100.00
10638;BME280;47007;49.252;8.904;2023-04-15T00:24:52;98826.50;;;4.88;100.00
10638;BME280;47007;49.252;8.904;2023-04-15T00:25:33;98825.84;;;4.86;100.00
10638;BME280;47007;49.252;8.904;2023-04-15T00:26:15;98807.69;;;4.76;100.00
10638;BME280;47007;49.252;8.904;2023-04-15T00:26:57;98801.13;;;4.72;100.00
10638;BME280;47007;49.252;8.904;2023-04-15T00:27:39;98818.31;;;4.83;100.00
10638;BME280;47007;49.252;8.904;2023-04-15T00:28:21;98815.06;;;4.81;100.00
10638;BME280;47007;49.252;8.904;2023-04-15T00:29:02;98824.84;;;4.87;100.00
10638;BME280;47007;49.252;8.904;2023-04-15T00:29:44;98817.31;;;4.84;100.00
10638;BME280;47007;49.252;8.904;2023-04-15T00:30:26;98804.88;;;4.78;100.00
10638;BME280;47007;49.252;8.904;2023-04-15T00:31:08;98810.25;;;4.84;100.00
10638;BME280;47007;49.252;8.904;2023-04-15T00:31:50;98816.69;;;4.82;100.00
10638;BME280;47007;49.252;8.904;2023-04-15T00:32:32;98793.41;;;4.70;100.00
10638;BME280;47007;49.252;8.904;2023-04-15T00:33:13;98812.22;;;4.82;100.00
10638;BME280;47007;49.252;8.904;2023-04-15T00:33:56;98813.03;;;4.83;100.00
10638;BME280;47007;49.252;8.904;2023-04-15T00:34:38;98818.31;;;4.83;100.00
10638;BME280;47007;49.252;8.904;2023-04-15T00:35:21;98817.69;;;4.81;100.00
10638;BME280;47007;49.252;8.904;2023-04-15T00:36:05;98803.91;;;4.70;100.00
10638;BME280;47007;49.252;8.904;2023-04-15T00:36:48;98805.53;;;4.80;100.00
10638;BME280;47007;49.252;8.904;2023-04-15T00:37:29;98811.59;;;4.80;100.00
10638;BME280;47007;49.252;8.904;2023-04-15T00:38:11;98815.06;;;4.81;100.00
10638;BME280;47007;49.252;8.904;2023-04-15T00:38:55;98803.25;;;4.77;100.00
10638;BME280;47007;49.252;8.904;2023-04-15T00:39:37;98791.81;;;4.69;100.00
10638;BME280;47007;49.252;8.904;2023-04-15T00:40:20;98804.72;;;4.79;100.00
10638;BME280;47007;49.252;8.904;2023-04-15T00:41:03;98803.25;;;4.77;100.00
10638;BME280;47007;49.252;8.904;2023-04-15T00:41:45;98811.78;;;4.79;100.00
10638;BME280;47007;49.252;8.904;2023-04-15T00:42:27;98810.97;;;4.78;100.00
10638;BME280;47007;49.252;8.904;2023-04-15T00:43:09;98800.47;;;4.78;100.00
10638;BME280;47007;49.252;8.904;2023-04-15T00:43:50;98806.53;;;4.79;100.00
10638;BME280;47007;49.252;8.904;2023-04-15T00:44:32;98802.09;;;4.79;100.00
10638;BME280;47007;49.252;8.904;2023-04-15T00:45:15;98791.63;;;4.71;100.00
10638;BME280;47007;49.252;8.904;2023-04-15T00:45:57;98798.81;;;4.77;100.00
10638;BME280;47007;49.252;8.904;2023-04-15T00:46:40;98806.34;;;4.80;100.00
10638;BME280;47007;49.252;8.904;2023-04-15T00:47:22;98797.66;;;4.80;100.00
10638;BME280;47007;49.252;8.904;2023-04-15T00:48:04;98803.25;;;4.77;100.00
10638;BME280;47007;49.252;8.904;2023-04-15T00:48:46;98781.50;;;4.60;100.00
10638;BME280;47007;49.252;8.904;2023-04-15T00:49:28;98790.50;;;4.65;100.00
10638;BME280;47007;49.252;8.904;2023-04-15T00:50:10;98788.91;;;4.56;100.00
10638;BME280;47007;49.252;8.904;2023-04-15T00:50:53;98789.75;;;4.49;100.00
10638;BME280;47007;49.252;8.904;2023-04-15T00:51:34;98802.03;;;4.56;100.00
10638;BME280;47007;49.252;8.904;2023-04-15T00:52:19;98808.59;;;4.52;100.00
10638;BME280;47007;49.252;8.904;2023-04-15T00:53:00;98803.03;;;4.47;100.00
10638;BME280;47007;49.252;8.904;2023-04-15T00:53:42;98806.31;;;4.49;100.00
10638;BME280;47007;49.252;8.904;2023-04-15T00:54:24;98805.66;;;4.47;100.00
10638;BME280;47007;49.252;8.904;2023-04-15T00:55:06;98812.53;;;4.48;100.00
10638;BME280;47007;49.252;8.904;2023-04-15T00:55:48;98815.16;;;4.48;100.00
10638;BME280;47007;49.252;8.904;2023-04-15T00:56:35;98811.88;;;4.46;100.00
10638;BME280;47007;49.252;8.904;2023-04-15T00:57:20;98791.91;;;4.37;100.00
10638;BME280;47007;49.252;8.904;2023-04-15T00:58:02;98806.34;;;4.41;100.00
10638;BME280;47007;49.252;8.904;2023-04-15T00:58:44;98780.13;;;4.25;100.00
10638;BME280;47007;49.252;8.904;2023-04-15T00:59:26;98808.13;;;4.41;100.00
10638;BME280;47007;49.252;8.904;2023-04-15T01:00:08;98752.97;;;4.10;100.00
10638;BME280;47007;49.252;8.904;2023-04-15T01:00:52;98807.66;;;4.37;100.00
10638;BME280;47007;49.252;8.904;2023-04-15T01:01:36;98812.91;;;4.37;100.00
10638;BME280;47007;49.252;8.904;2023-04-15T01:02:18;98819.78;;;4.38;100.00
10638;BME280;47007;49.252;8.904;2023-04-15T01:03:00;98812.41;;;4.42;100.00
10638;BME280;47007;49.252;8.904;2023-04-15T01:03:42;98771.97;;;4.20;100.00
10638;BME280;47007;49.252;8.904;2023-04-15T01:04:24;98812.53;;;4.48;100.00
10638;BME280;47007;49.252;8.904;2023-04-15T01:05:06;98810.22;;;4.53;100.00
10638;BME280;47007;49.252;8.904;2023-04-15T01:05:49;98809.91;;;4.56;100.00
10638;BME280;47007;49.252;8.904;2023-04-15T01:06:31;98801.84;;;4.58;100.00
10638;BME280;47007;49.252;8.904;2023-04-15T01:07:13;98810.34;;;4.60;100.00
10638;BME280;47007;49.252;8.904;2023-04-15T01:07:55;98776.16;;;4.37;100.00
10638;BME280;47007;49.252;8.904;2023-04-15T01:08:36;98809.09;;;4.56;100.00
10638;BME280;47007;49.252;8.904;2023-04-15T01:09:18;98796.16;;;4.38;100.00
10638;BME280;47007;49.252;8.904;2023-04-15T01:10:00;98796.34;;;4.37;100.00
10638;BME280;47007;49.252;8.904;2023-04-15T01:10:42;98803.56;;;4.34;100.00
10638;BME280;47007;49.252;8.904;2023-04-15T01:11:24;98809.97;;;4.32;100.00
10638;BME280;47007;49.252;8.904;2023-04-15T01:12:06;98820.13;;;4.35;100.00
10638;BME280;47007;49.252;8.904;2023-04-15T01:12:50;98803.91;;;4.23;100.00
10638;BME280;47007;49.252;8.904;2023-04-15T01:13:33;98787.88;;;4.10;100.00
10638;BME280;47007;49.252;8.904;2023-04-15T01:14:15;98817.19;;;4.22;100.00
10638;BME280;47007;49.252;8.904;2023-04-15T01:14:58;98808.38;;;4.15;100.00
10638;BME280;47007;49.252;8.904;2023-04-15T01:15:39;98794.63;;;4.05;100.00
10638;BME280;47007;49.252;8.904;2023-04-15T01:16:21;98814.25;;;4.17;100.00
10638;BME280;47007;49.252;8.904;2023-04-15T01:17:03;98806.88;;;4.12;100.00
10638;BME280;47007;49.252;8.904;2023-04-15T01:17:47;98786.25;;;4.01;100.00
10638;BME280;47007;49.252;8.904;2023-04-15T01:18:29;98783.47;;;4.03;100.00
10638;BME280;47007;49.252;8.904;2023-04-15T01:19:15;98815.88;;;4.26;100.00
10638;BME280;47007;49.252;8.904;2023-04-15T01:19:58;98818.00;;;4.30;100.00
10638;BME280;47007;49.252;8.904;2023-04-15T01:20:40;98782.47;;;4.12;100.00
10638;BME280;47007;49.252;8.904;2023-04-15T01:21:22;98812.41;;;4.33;100.00
10638;BME280;47007;49.252;8.904;2023-04-15T01:22:03;98793.94;;;4.19;100.00
10638;BME280;47007;49.252;8.904;2023-04-15T01:22:46;98810.97;;;4.31;100.00
10638;BME280;47007;49.252;8.904;2023-04-15T01:23:28;98777.06;;;4.13;100.00
10638;BME280;47007;49.252;8.904;2023-04-15T01:24:10;98816.22;;;4.31;100.00
10638;BME280;47007;49.252;8.904;2023-04-15T01:25:30;98790.00;;;4.15;100.00
10638;BME280;47007;49.252;8.904;2023-04-15T01:26:12;98813.94;;;4.20;100.00
10638;BME280;47007;49.252;8.904;2023-04-15T01:26:54;98740.91;;;3.76;100.00
10638;BME280;47007;49.252;8.904;2023-04-15T01:27:40;98791.03;;;4.06;100.00
10638;BME280;47007;49.252;8.904;2023-04-15T01:28:23;98780.84;;;4.03;100.00
10638;BME280;47007;49.252;8.904;2023-04-15T01:29:05;98805.75;;;4.15;100.00
10638;BME280;47007;49.252;8.904;2023-04-15T01:29:47;98819.97;;;4.20;100.00
10638;BME280;47007;49.252;8.904;2023-04-15T01:30:32;98815.22;;;4.24;100.00
10638;BME280;47007;49.252;8.904;2023-04-15T01:31:15;98810.63;;;4.26;100.00
10638;BME280;47007;49.252;8.904;2023-04-15T01:31:57;98818.66;;;4.32;100.00
10638;BME280;47007;49.252;8.904;2023-04-15T01:32:58;98794.75;;;4.19;100.00
10638;BME280;47007;49.252;8.904;2023-04-15T01:33:59;98814.38;;;4.40;100.00
10638;BME280;47007;49.252;8.904;2023-04-15T01:35:00;98792.59;;;4.31;100.00
10638;BME280;47007;49.252;8.904;2023-04-15T01:36:00;98789.16;;;4.22;100.00
10638;BME280;47007;49.252;8.904;2023-04-15T01:36:42;98808.34;;;4.31;100.00
10638;BME280;47007;49.252;8.904;2023-04-15T01:37:23;98820.28;;;4.42;100.00
10638;BME280;47007;49.252;8.904;2023-04-15T01:38:07;98803.09;;;4.31;100.00
10638;BME280;47007;49.252;8.904;2023-04-15T01:38:51;98754.66;;;3.94;100.00
10638;BME280;47007;49.252;8.904;2023-04-15T01:39:35;98791.00;;;4.14;100.00
10638;BME280;47007;49.252;8.904;2023-04-15T01:40:17;98757.28;;;3.94;100.00
10638;BME280;47007;49.252;8.904;2023-04-15T01:41:00;98809.00;;;4.25;100.00
10638;BME280;47007;49.252;8.904;2023-04-15T01:41:43;98812.31;;;4.19;100.00
10638;BME280;47007;49.252;8.904;2023-04-15T01:42:26;98817.22;;;4.14;100.00
10638;BME280;47007;49.252;8.904;2023-04-15T01:43:09;98816.88;;;4.09;100.00
10638;BME280;47007;49.252;8.904;2023-04-15T01:43:52;98829.69;;;4.04;100.00
10638;BME280;47007;49.252;8.904;2023-04-15T01:44:35;98791.03;;;3.89;100.00
10638;BME280;47007;49.252;8.904;2023-04-15T01:45:19;98787.63;;;3.81;100.00
10638;BME280;47007;49.252;8.904;2023-04-15T01:46:01;98793.84;;;3.80;100.00
10638;BME280;47007;49.252;8.904;2023-04-15T01:46:47;98784.97;;;3.73;100.00
10638;BME280;47007;49.252;8.904;2023-04-15T01:47:30;98806.44;;;3.76;100.00
10638;BME280;47007;49.252;8.904;2023-04-15T01:48:12;98812.34;;;3.78;100.00
10638;BME280;47007;49.252;8.904;2023-04-15T01:48:55;98805.78;;;3.74;100.00
10638;BME280;47007;49.252;8.904;2023-04-15T01:49:40;98812.34;;;3.70;100.00
10638;BME280;47007;49.252;8.904;2023-04-15T01:50:23;98813.66;;;3.66;100.00
10638;BME280;47007;49.252;8.904;2023-04-15T01:51:06;98787.94;;;3.45;100.00
10638;BME280;47007;49.252;8.904;2023-04-15T01:51:49;98805.81;;;3.58;100.00
10638;BME280;47007;49.252;8.904;2023-04-15T01:52:32;98814.13;;;3.61;100.00
10638;BME280;47007;49.252;8.904;2023-04-15T01:53:15;98798.75;;;3.50;100.00
10638;BME280;47007;49.252;8.904;2023-04-15T01:53:58;98822.81;;;3.62;100.00
10638;BME280;47007;49.252;8.904;2023-04-15T01:54:41;98810.03;;;3.59;100.00
10638;BME280;47007;49.252;8.904;2023-04-15T01:55:24;98806.44;;;3.60;100.00
10638;BME280;47007;49.252;8.904;2023-04-15T01:56:07;98801.84;;;3.62;100.00
10638;BME280;47007;49.252;8.904;2023-04-15T01:56:50;98818.22;;;3.72;100.00
10638;BME280;47007;49.252;8.904;2023-04-15T01:57:33;98822.66;;;3.80;100.00
10638;BME280;47007;49.252;8.904;2023-04-15T01:58:17;98817.09;;;3.83;100.00
10638;BME280;47007;49.252;8.904;2023-04-15T01:59:00;98808.22;;;3.84;100.00
10638;BME280;47007;49.252;8.904;2023-04-15T01:59:43;98789.91;;;3.76;100.00
10638;BME280;47007;49.252;8.904;2023-04-15T02:00:26;98793.84;;;3.80;100.00
10638;BME280;47007;49.252;8.904;2023-04-15T02:01:10;98817.22;;;3.97;100.00
10638;BME280;47007;49.252;8.904;2023-04-15T02:01:53;98811.34;;;3.95;100.00
10638;BME280;47007;49.252;8.904;2023-04-15T02:02:36;98808.72;;;3.95;100.00
10638;BME280;47007;49.252;8.904;2023-04-15T02:03:19;98761.91;;;3.68;100.00
10638;BME280;47007;49.252;8.904;2023-04-15T02:04:02;98821.50;;;3.98;100.00
10638;BME280;47007;49.252;8.904;2023-04-15T02:04:46;98823.44;;;3.96;100.00
10638;BME280;47007;49.252;8.904;2023-04-15T02:05:31;98753.88;;;3.53;100.00
10638;BME280;47007;49.252;8.904;2023-04-15T02:06:14;98817.41;;;3.88;100.00
10638;BME280;47007;49.252;8.904;2023-04-15T02:06:57;98819.22;;;3.87;100.00
10638;BME280;47007;49.252;8.904;2023-04-15T02:07:41;98798.06;;;3.73;100.00
10638;BME280;47007;49.252;8.904;2023-04-15T02:08:25;98820.88;;;3.80;100.00
10638;BME280;47007;49.252;8.904;2023-04-15T02:09:08;98813.31;;;3.77;100.00
10638;BME280;47007;49.252;8.904;2023-04-15T02:09:52;98808.72;;;3.71;100.00
10638;BME280;47007;49.252;8.904;2023-04-15T02:10:35;98793.69;;;3.57;100.00
10638;BME280;47007;49.252;8.904;2023-04-15T02:11:20;98794.00;;;3.62;100.00
10638;BME280;47007;49.252;8.904;2023-04-15T02:12:03;98814.97;;;3.78;100.00
10638;BME280;47007;49.252;8.904;2023-04-15T02:12:46;98808.72;;;3.71;100.00
10638;BME280;47007;49.252;8.904;2023-04-15T02:13:29;98806.94;;;3.64;100.00
10638;BME280;47007;49.252;8.904;2023-04-15T02:14:12;98747.31;;;3.25;100.00
10638;BME280;47007;49.252;8.904;2023-04-15T02:14:55;98748.31;;;3.24;100.00
10638;BME280;47007;49.252;8.904;2023-04-15T02:15:38;98789.25;;;3.49;100.00
10638;BME280;47007;49.252;8.904;2023-04-15T02:16:21;98814.63;;;3.65;100.00
10638;BME280;47007;49.252;8.904;2023-04-15T02:17:04;98808.06;;;3.61;100.00
10638;BME280;47007;49.252;8.904;2023-04-15T02:17:50;98815.94;;;3.69;100.00
10638;BME280;47007;49.252;8.904;2023-04-15T02:18:34;98815.78;;;3.71;100.00
10638;BME280;47007;49.252;8.904;2023-04-15T02:19:19;98820.22;;;3.70;100.00
10638;BME280;47007;49.252;8.904;2023-04-15T02:20:03;98813.16;;;3.71;100.00
10638;BME280;47007;49.252;8.904;2023-04-15T02:20:51;98819.88;;;3.73;100.00
10638;BME280;47007;49.252;8.904;2023-04-15T02:21:34;98793.34;;;3.60;100.00
10638;BME280;47007;49.252;8.904;2023-04-15T02:22:17;98811.03;;;3.74;100.00
10638;BME280;47007;49.252;8.904;2023-04-15T02:23:01;98816.59;;;3.79;100.00
10638;BME280;47007;49.252;8.904;2023-04-15T02:23:44;98818.72;;;3.84;100.00
10638;BME280;47007;49.252;8.904;2023-04-15T02:24:29;98785.47;;;3.60;100.00
10638;BME280;47007;49.252;8.904;2023-04-15T02:25:13;98800.72;;;3.65;100.00
10638;BME280;47007;49.252;8.904;2023-04-15T02:25:56;98800.88;;;3.55;100.00
10638;BME280;47007;49.252;8.904;2023-04-15T02:26:39;98814.63;;;3.57;100.00
10638;BME280;47007;49.252;8.904;2023-04-15T02:27:22;98715.53;;;2.79;100.00
10638;BME280;47007;49.252;8.904;2023-04-15T02:28:05;98822.31;;;3.42;100.00
10638;BME280;47007;49.252;8.904;2023-04-15T02:28:48;98812.81;;;3.33;100.00
10638;BME280;47007;49.252;8.904;2023-04-15T02:29:32;98823.09;;;3.35;100.00
10638;BME280;47007;49.252;8.904;2023-04-15T02:30:16;98812.31;;;3.30;100.00
10638;BME280;47007;49.252;8.904;2023-04-15T02:30:58;98827.53;;;3.34;100.00
10638;BME280;47007;49.252;8.904;2023-04-15T02:31:45;98821.50;;;3.34;100.00
10638;BME280;47007;49.252;8.904;2023-04-15T02:32:29;98809.50;;;3.15;100.00
10638;BME280;47007;49.252;8.904;2023-04-15T02:33:12;98778.88;;;2.99;100.00
10638;BME280;47007;49.252;8.904;2023-04-15T02:33:55;98827.38;;;3.28;100.00
10638;BME280;47007;49.252;8.904;2023-04-15T02:34:39;98824.25;;;3.24;100.00
10638;BME280;47007;49.252;8.904;2023-04-15T02:35:23;98810.63;;;3.12;100.00
10638;BME280;47007;49.252;8.904;2023-04-15T02:36:07;98818.53;;;3.20;100.00
10638;BME280;47007;49.252;8.904;2023-04-15T02:36:52;98829.00;;;3.20;100.00
10638;BME280;47007;49.252;8.904;2023-04-15T02:37:39;98815.56;;;3.15;100.00
10638;BME280;47007;49.252;8.904;2023-04-15T02:38:28;98819.66;;;3.18;100.00
10638;BME280;47007;49.252;8.904;2023-04-15T02:39:11;98756.59;;;2.87;100.00
10638;BME280;47007;49.252;8.904;2023-04-15T02:39:56;98826.38;;;3.29;100.00
10638;BME280;47007;49.252;8.904;2023-04-15T02:40:39;98822.47;;;3.33;100.00
10638;BME280;47007;49.252;8.904;2023-04-15T02:41:22;98808.69;;;3.22;100.00
10638;BME280;47007;49.252;8.904;2023-04-15T02:42:08;98822.13;;;3.36;100.00
10638;BME280;47007;49.252;8.904;2023-04-15T02:42:51;98820.50;;;3.35;100.00
10638;BME280;47007;49.252;8.904;2023-04-15T02:43:34;98819.19;;;3.31;100.00
10638;BME280;47007;49.252;8.904;2023-04-15T02:44:17;98821.50;;;3.34;100.00
10638;BME280;47007;49.252;8.904;2023-04-15T02:45:05;98826.91;;;3.32;100.00
10638;BME280;47007;49.252;8.904;2023-04-15T02:45:49;98833.09;;;3.31;100.00
10638;BME280;47007;49.252;8.904;2023-04-15T02:46:33;98829.66;;;3.31;100.00
10638;BME280;47007;49.252;8.904;2023-04-15T02:47:15;98829.16;;;3.27;100.00
10638;BME280;47007;49.252;8.904;2023-04-15T02:47:58;98793.13;;;3.05;100.00
10638;BME280;47007;49.252;8.904;2023-04-15T02:48:43;98828.34;;;3.27;100.00
10638;BME280;47007;49.252;8.904;2023-04-15T02:49:25;98812.13;;;3.15;100.00
10638;BME280;47007;49.252;8.904;2023-04-15T02:50:12;98831.63;;;3.29;100.00
10638;BME280;47007;49.252;8.904;2023-04-15T02:51:31;98830.34;;;3.33;100.00
10638;BME280;47007;49.252;8.904;2023-04-15T02:52:14;98830.66;;;3.30;100.00
10638;BME280;47007;49.252;8.904;2023-04-15T02:52:57;98801.97;;;3.12;100.00
10638;BME280;47007;49.252;8.904;2023-04-15T02:53:40;98764.13;;;2.82;100.00
10638;BME280;47007;49.252;8.904;2023-04-15T02:54:23;98823.59;;;3.30;100.00
10638;BME280;47007;49.252;8.904;2023-04-15T02:55:07;98833.94;;;3.32;100.00
10638;BME280;47007;49.252;8.904;2023-04-15T02:55:52;98835.56;;;3.33;100.00
10638;BME280;47007;49.252;8.904;2023-04-15T02:56:35;98761.50;;;2.90;100.00
10638;BME280;47007;49.252;8.904;2023-04-15T02:57:18;98829.00;;;3.37;100.00
10638;BME280;47007;49.252;8.904;2023-04-15T02:58:01;98826.75;;;3.42;100.00
10638;BME280;47007;49.252;8.904;2023-04-15T02:58:44;98818.06;;;3.41;100.00
10638;BME280;47007;49.252;8.904;2023-04-15T02:59:27;98826.91;;;3.48;100.00
10638;BME280;47007;49.252;8.904;2023-04-15T03:00:11;98820.84;;;3.48;100.00
10638;BME280;47007;49.252;8.904;2023-04-15T03:00:57;98824.13;;;3.50;100.00
10638;BME280;47007;49.252;8.904;2023-04-15T03:01:40;98829.03;;;3.53;100.00
10638;BME280;47007;49.252;8.904;2023-04-15T03:02:24;98828.06;;;3.54;100.00
10638;BME280;47007;49.252;8.904;2023-04-15T03:03:07;98790.06;;;3.34;100.00
10638;BME280;47007;49.252;8.904;2023-04-15T03:03:50;98828.72;;;3.56;100.00
10638;BME280;47007;49.252;8.904;2023-04-15T03:04:34;98817.91;;;3.51;100.00
10638;BME280;47007;49.252;8.904;2023-04-15T03:05:16;98824.97;;;3.58;100.00
10638;BME280;47007;49.252;8.904;2023-04-15T03:06:05;98821.34;;;3.59;100.00
10638;BME280;47007;49.252;8.904;2023-04-15T03:06:48;98745.84;;;3.14;100.00
10638;BME280;47007;49.252;8.904;2023-04-15T03:07:31;98816.09;;;3.59;100.00
10638;BME280;47007;49.252;8.904;2023-04-15T03:08:15;98826.25;;;3.63;100.00
10638;BME280;47007;49.252;8.904;2023-04-15T03:08:58;98831.34;;;3.64;100.00
10638;BME280;47007;49.252;8.904;2023-04-15T03:09:44;98821.69;;;3.65;100.00
10638;BME280;47007;49.252;8.904;2023-04-15T03:10:29;98814.28;;;3.60;100.00
10638;BME280;47007;49.252;8.904;2023-04-15T03:11:14;98811.53;;;3.53;100.00
10638;BME280;47007;49.252;8.904;2023-04-15T03:11:56;98805.63;;;3.59;100.00
10638;BME280;47007;49.252;8.904;2023-04-15T03:12:39;98803.00;;;3.59;100.00
10638;BME280;47007;49.252;8.904;2023-04-15T03:13:25;98832.66;;;3.76;100.00
10638;BME280;47007;49.252;8.904;2023-04-15T03:14:08;98808.41;;;3.66;100.00
10638;BME280;47007;49.252;8.904;2023-04-15T03:14:55;98794.31;;;3.59;100.00
10638;BME280;47007;49.252;8.904;2023-04-15T03:15:46;98828.56;;;3.82;100.00
10638;BME280;47007;49.252;8.904;2023-04-15T03:16:29;98824.16;;;3.82;100.00
10638;BME280;47007;49.252;8.904;2023-04-15T03:17:13;98825.75;;;3.83;100.00
10638;BME280;47007;49.252;8.904;2023-04-15T03:17:57;98817.59;;;3.78;100.00
10638;BME280;47007;49.252;8.904;2023-04-15T03:18:40;98824.16;;;3.82;100.00
10638;BME280;47007;49.252;8.904;2023-04-15T03:19:24;98819.53;;;3.76;100.00
10638;BME280;47007;49.252;8.904;2023-04-15T03:20:07;98794.31;;;3.59;100.00
10638;BME280;47007;49.252;8.904;2023-04-15T03:20:50;98821.19;;;3.77;100.00
10638;BME280;47007;49.252;8.904;2023-04-15T03:21:33;98807.75;;;3.64;100.00
10638;BME280;47007;49.252;8.904;2023-04-15T03:22:16;98825.09;;;3.73;100.00
10638;BME280;47007;49.252;8.904;2023-04-15T03:22:59;98797.59;;;3.53;100.00
10638;BME280;47007;49.252;8.904;2023-04-15T03:23:43;98825.09;;;3.73;100.00
10638;BME280;47007;49.252;8.904;2023-04-15T03:24:27;98817.41;;;3.72;100.00
10638;BME280;47007;49.252;8.904;2023-04-15T03:25:12;98822.66;;;3.72;100.00
10638;BME280;47007;49.252;8.904;2023-04-15T03:25:54;98821.50;;;3.66;100.00
10638;BME280;47007;49.252;8.904;2023-04-15T03:26:39;98809.72;;;3.54;100.00
10638;BME280;47007;49.252;8.904;2023-04-15T03:27:29;98826.25;;;3.54;100.00
10638;BME280;47007;49.252;8.904;2023-04-15T03:28:15;98825.25;;;3.47;100.00
10638;BME280;47007;49.252;8.904;2023-04-15T03:28:58;98812.81;;;3.41;100.00
10638;BME280;47007;49.252;8.904;2023-04-15T03:29:41;98825.09;;;3.41;100.00
10638;BME280;47007;49.252;8.904;2023-04-15T03:30:24;98825.75;;;3.43;100.00
10638;BME280;47007;49.252;8.904;2023-04-15T03:31:07;98779.88;;;3.14;100.00
10638;BME280;47007;49.252;8.904;2023-04-15T03:31:51;98825.25;;;3.47;100.00
10638;BME280;47007;49.252;8.904;2023-04-15T03:32:34;98827.72;;;3.49;100.00
10638;BME280;47007;49.252;8.904;2023-04-15T03:33:17;98824.28;;;3.48;100.00
10638;BME280;47007;49.252;8.904;2023-04-15T03:34:00;98825.44;;;3.46;100.00
10638;BME280;47007;49.252;8.904;2023-04-15T03:34:43;98814.28;;;3.36;100.00
10638;BME280;47007;49.252;8.904;2023-04-15T03:35:26;98831.31;;;3.40;100.00
10638;BME280;47007;49.252;8.904;2023-04-15T03:36:08;98821.16;;;3.37;100.00
10638;BME280;47007;49.252;8.904;2023-04-15T03:36:52;98802.31;;;3.25;100.00
10638;BME280;47007;49.252;8.904;2023-04-15T03:37:35;98798.06;;;3.24;100.00
10638;BME280;47007;49.252;8.904;2023-04-15T03:38:17;98826.75;;;3.42;100.00
10638;BME280;47007;49.252;8.904;2023-04-15T03:39:00;98801.53;;;3.33;100.00
10638;BME280;47007;49.252;8.904;2023-04-15T03:39:46;98816.91;;;3.44;100.00
10638;BME280;47007;49.252;8.904;2023-04-15T03:40:29;98820.19;;;3.46;100.00
10638;BME280;47007;49.252;8.904;2023-04-15T03:41:12;98809.22;;;3.42;100.00
10638;BME280;47007;49.252;8.904;2023-04-15T03:41:54;98824.28;;;3.48;100.00
10638;BME280;47007;49.252;8.904;2023-04-15T03:42:38;98772.38;;;3.19;100.00
10638;BME280;47007;49.252;8.904;2023-04-15T03:43:21;98819.53;;;3.52;100.00
10638;BME280;47007;49.252;8.904;2023-04-15T03:44:04;98820.19;;;3.54;100.00
10638;BME280;47007;49.252;8.904;2023-04-15T03:44:47;98817.56;;;3.54;100.00
10638;BME280;47007;49.252;8.904;2023-04-15T03:45:30;98800.53;;;3.42;100.00
10638;BME280;47007;49.252;8.904;2023-04-15T03:46:13;98822.81;;;3.54;100.00
10638;BME280;47007;49.252;8.904;2023-04-15T03:46:56;98811.00;;;3.50;100.00
10638;BME280;47007;49.252;8.904;2023-04-15T03:47:38;98815.75;;;3.46;100.00
10638;BME280;47007;49.252;8.904;2023-04-15T03:48:21;98810.34;;;3.48;100.00
10638;BME280;47007;49.252;8.904;2023-04-15T03:49:06;98815.94;;;3.53;100.00
10638;BME280;47007;49.252;8.904;2023-04-15T03:49:48;98812.00;;;3.49;100.00
10638;BME280;47007;49.252;8.904;2023-04-15T03:50:31;98827.09;;;3.55;100.00